Time;durP1;ratioP1;P1;durP2;ratioP2;P2;SDS_P1;SDS_P2;PMS_P1;PMS_P2;Temp;Humidity;BMP_temperature;BMP_pressure;BME280_temperature;BME280_humidity;BME280_pressure;Samples;Min_cycle;Max_cycle;Signal;HPM_P1;HPM_P2
2023/10/06 04:02:19;;;;;;;;;;;10.20;99.90;;;;;;5119472;22;19926;-68
2023/10/06 04:04:44;;;;;;;;;;;10.10;99.90;;;;;;4997517;28;19914;-68
2023/10/06 04:07:10;;;;;;;;;;;10.10;99.90;;;;;;4999318;28;19910;-68
2023/10/06 04:09:37;;;;;;;;;;;10.10;99.90;;;;;;4998722;28;20392;-68
2023/10/06 04:12:02;;;;;;;;;;;10.10;99.90;;;;;;5001199;28;19953;-68
2023/10/06 04:14:31;;;;;;;;;;;10.40;99.90;;;;;;5026048;23;19932;-66
2023/10/06 04:16:58;;;;;;;;;;;10.60;99.90;;;;;;5034588;28;19913;-67
2023/10/06 04:19:23;;;;;;;;;;;10.70;99.90;;;;;;5032597;28;19910;-67
2023/10/06 04:21:49;;;;;;;;;;;10.80;99.90;;;;;;5033897;28;20000;-66
2023/10/06 04:24:14;;;;;;;;;;;10.60;99.90;;;;;;5033758;28;19913;-65
2023/10/06 04:26:40;;;;;;;;;;;10.40;99.90;;;;;;5033849;28;19985;-67
2023/10/06 04:29:05;;;;;;;;;;;10.40;99.90;;;;;;5033716;28;19913;-66
2023/10/06 04:31:31;;;;;;;;;;;10.30;99.90;;;;;;5033868;28;19913;-66
2023/10/06 04:33:58;;;;;;;;;;;10.30;99.90;;;;;;5034083;28;20003;-67
2023/10/06 04:36:24;;;;;;;;;;;10.30;99.90;;;;;;5033899;28;20255;-67
2023/10/06 04:38:50;;;;;;;;;;;10.40;99.90;;;;;;5033703;28;20001;-65
2023/10/06 04:41:16;;;;;;;;;;;10.70;99.90;;;;;;5033488;28;19909;-68
2023/10/06 04:43:44;;;;;;;;;;;10.90;99.90;;;;;;5033980;28;19909;-67
2023/10/06 04:46:10;;;;;;;;;;;10.90;99.90;;;;;;5033287;28;19910;-66
2023/10/06 04:48:36;;;;;;;;;;;10.80;99.90;;;;;;5036560;28;19917;-66
2023/10/06 04:51:05;;;;;;;;;;;10.80;99.90;;;;;;5037498;28;20259;-67
2023/10/06 04:53:35;;;;;;;;;;;10.80;99.90;;;;;;5037571;28;19909;-66
2023/10/06 04:56:05;;;;;;;;;;;10.70;99.90;;;;;;5036354;28;19909;-65
2023/10/06 04:58:31;;;;;;;;;;;10.60;99.90;;;;;;5038249;28;19937;-65
2023/10/06 05:00:59;;;;;;;;;;;10.70;99.90;;;;;;5037199;28;19920;-65
2023/10/06 05:03:26;;;;;;;;;;;10.60;99.90;;;;;;5037284;28;19917;-65
2023/10/06 05:05:55;;;;;;;;;;;10.60;99.90;;;;;;5037351;28;19975;-65
2023/10/06 05:08:21;;;;;;;;;;;10.50;99.90;;;;;;5037310;28;19909;-65
2023/10/06 05:10:47;;;;;;;;;;;10.40;99.90;;;;;;5037118;28;19921;-65
2023/10/06 05:13:14;;;;;;;;;;;10.40;99.90;;;;;;5037106;28;19916;-66
2023/10/06 05:15:41;;;;;;;;;;;10.40;99.90;;;;;;5036557;28;19917;-65
2023/10/06 05:18:07;;;;;;;;;;;10.10;99.90;;;;;;5037115;28;20003;-66
2023/10/06 05:20:33;;;;;;;;;;;10.30;99.90;;;;;;5036464;28;20371;-65
2023/10/06 05:23:02;;;;;;;;;;;10.30;99.90;;;;;;5036045;28;19947;-65
2023/10/06 05:25:29;;;;;;;;;;;10.50;99.90;;;;;;5036896;28;19913;-65
2023/10/06 05:27:57;;;;;;;;;;;10.60;99.90;;;;;;5035470;28;19909;-64
2023/10/06 05:30:22;;;;;;;;;;;10.70;99.90;;;;;;5036408;28;19980;-65
2023/10/06 05:32:48;;;;;;;;;;;10.80;99.90;;;;;;5036490;28;19917;-65
2023/10/06 05:35:14;;;;;;;;;;;10.70;99.90;;;;;;5036575;28;19909;-65
2023/10/06 05:37:41;;;;;;;;;;;10.70;99.90;;;;;;5036609;28;19909;-64
2023/10/06 05:40:11;;;;;;;;;;;10.60;99.90;;;;;;5035325;28;19999;-64
2023/10/06 05:42:37;;;;;;;;;;;10.50;99.90;;;;;;5036671;28;19917;-64
2023/10/06 05:45:12;;;;;;;;;;;10.50;99.90;;;;;;5035945;28;19916;-65
2023/10/06 05:47:38;;;;;;;;;;;10.40;99.90;;;;;;5036492;28;19909;-65
2023/10/06 05:50:08;;;;;;;;;;;10.40;99.90;;;;;;5036238;28;19964;-65
2023/10/06 05:52:38;;;;;;;;;;;10.40;99.90;;;;;;5036671;28;19956;-65
2023/10/06 05:55:09;;;;;;;;;;;10.50;99.90;;;;;;5036750;28;20008;-65
2023/10/06 05:57:39;;;;;;;;;;;10.40;99.90;;;;;;5036538;28;19931;-65
2023/10/06 06:00:09;;;;;;;;;;;10.60;99.90;;;;;;5035230;28;20382;-65
2023/10/06 06:02:37;;;;;;;;;;;10.60;99.90;;;;;;5036542;28;19936;-65
2023/10/06 06:05:04;;;;;;;;;;;10.60;99.90;;;;;;5035866;28;19909;-66
2023/10/06 06:07:29;;;;;;;;;;;10.70;99.90;;;;;;5034702;28;19909;-65
2023/10/06 06:09:55;;;;;;;;;;;10.70;99.90;;;;;;5034549;28;19992;-65
2023/10/06 06:12:21;;;;;;;;;;;11.00;99.90;;;;;;5034707;28;19917;-65
2023/10/06 06:14:47;;;;;;;;;;;11.00;99.90;;;;;;5035516;28;19921;-65
2023/10/06 06:17:12;;;;;;;;;;;11.00;99.90;;;;;;5034550;28;19916;-66
2023/10/06 06:19:39;;;;;;;;;;;11.10;99.90;;;;;;5036167;28;19913;-66
2023/10/06 06:22:05;;;;;;;;;;;10.90;99.90;;;;;;5035811;28;19910;-66
2023/10/06 06:24:31;;;;;;;;;;;11.00;99.90;;;;;;5035625;28;19909;-66
2023/10/06 06:26:58;;;;;;;;;;;11.10;99.90;;;;;;5035660;28;20046;-65
2023/10/06 06:29:24;;;;;;;;;;;11.10;99.90;;;;;;5035626;28;19916;-66
2023/10/06 06:31:49;;;;;;;;;;;11.10;99.90;;;;;;5034381;28;19913;-65
2023/10/06 06:34:16;;;;;;;;;;;11.20;99.90;;;;;;5035912;28;20240;-65
2023/10/06 06:36:42;;;;;;;;;;;11.10;99.90;;;;;;5035683;28;20375;-65
2023/10/06 06:39:10;;;;;;;;;;;11.00;99.90;;;;;;5034387;28;19940;-65
2023/10/06 06:41:36;;;;;;;;;;;10.80;99.90;;;;;;5036201;28;19910;-66
2023/10/06 06:44:01;;;;;;;;;;;10.80;99.90;;;;;;5034052;28;19955;-66
2023/10/06 06:46:29;;;;;;;;;;;10.80;99.90;;;;;;5015586;28;19921;-68
2023/10/06 06:48:55;;;;;;;;;;;10.80;99.90;;;;;;5015418;28;19910;-67
2023/10/06 06:51:27;;;;;;;;;;;10.70;99.90;;;;;;5015310;28;19913;-67
2023/10/06 06:53:56;;;;;;;;;;;10.70;99.90;;;;;;5015181;28;19916;-68
2023/10/06 06:56:23;;;;;;;;;;;10.80;99.90;;;;;;5018273;28;19910;-67
2023/10/06 06:58:49;;;;;;;;;;;10.70;99.90;;;;;;5019523;28;19976;-67
2023/10/06 07:01:16;;;;;;;;;;;10.70;99.90;;;;;;5015807;28;19937;-69
2023/10/06 07:03:41;;;;;;;;;;;10.70;99.90;;;;;;5015593;28;19909;-65
2023/10/06 07:06:16;;;;;;;;;;;10.70;99.90;;;;;;5015331;28;19920;-63
2023/10/06 07:08:45;;;;;;;;;;;10.60;99.90;;;;;;5015180;28;19909;-64
2023/10/06 07:11:10;;;;;;;;;;;10.50;99.90;;;;;;5012536;28;19913;-60
2023/10/06 07:13:36;;;;;;;;;;;10.40;99.90;;;;;;5015183;28;20390;-66
2023/10/06 07:16:05;;;;;;;;;;;10.40;99.90;;;;;;5031120;28;20386;-67
2023/10/06 07:18:31;;;;;;;;;;;10.40;99.90;;;;;;5034797;28;19916;-66
2023/10/06 07:20:57;;;;;;;;;;;10.40;99.90;;;;;;5034657;28;19915;-67
2023/10/06 07:23:23;;;;;;;;;;;10.50;99.90;;;;;;5034777;28;19909;-66
2023/10/06 07:25:48;;;;;;;;;;;10.50;99.90;;;;;;5033384;28;19916;-67
2023/10/06 07:28:14;;;;;;;;;;;10.50;99.90;;;;;;5034533;28;19916;-66
2023/10/06 07:30:39;;;;;;;;;;;10.60;99.90;;;;;;5033650;28;19909;-66
2023/10/06 07:33:08;;;;;;;;;;;10.60;99.90;;;;;;5036510;28;19913;-67
2023/10/06 07:35:47;;;;;;;;;;;10.60;99.90;;;;;;5035006;28;20263;-66
2023/10/06 07:38:13;;;;;;;;;;;10.50;99.90;;;;;;5034582;28;19960;-67
2023/10/06 07:40:39;;;;;;;;;;;10.70;99.90;;;;;;5032795;28;19992;-67
2023/10/06 07:43:05;;;;;;;;;;;10.80;99.90;;;;;;5034141;28;19952;-68
2023/10/06 07:45:32;;;;;;;;;;;11.00;99.90;;;;;;5032313;28;19909;-68
2023/10/06 07:47:57;;;;;;;;;;;11.20;99.90;;;;;;5032807;28;19913;-69
2023/10/06 07:50:26;;;;;;;;;;;11.10;99.90;;;;;;5032387;28;20433;-69
2023/10/06 07:52:52;;;;;;;;;;;11.10;99.90;;;;;;5033962;28;19919;-69
2023/10/06 07:55:21;;;;;;;;;;;11.10;99.90;;;;;;5032179;28;19909;-67
2023/10/06 07:57:48;;;;;;;;;;;11.30;99.90;;;;;;5032432;28;19909;-68
2023/10/06 08:00:18;;;;;;;;;;;11.20;99.90;;;;;;5032265;28;19916;-68
2023/10/06 08:02:44;;;;;;;;;;;11.30;99.90;;;;;;5033855;28;19916;-67
2023/10/06 08:05:13;;;;;;;;;;;11.40;99.90;;;;;;5033752;28;19909;-68
2023/10/06 08:07:39;;;;;;;;;;;11.30;99.90;;;;;;5032394;28;19909;-68
2023/10/06 08:10:05;;;;;;;;;;;11.40;99.90;;;;;;5033819;28;19916;-66
2023/10/06 08:12:33;;;;;;;;;;;11.40;99.90;;;;;;5033530;28;19913;-67
2023/10/06 08:15:06;;;;;;;;;;;11.60;99.90;;;;;;5033318;28;20427;-66
2023/10/06 08:17:33;;;;;;;;;;;11.90;99.90;;;;;;5032470;28;19910;-68
2023/10/06 08:20:00;;;;;;;;;;;11.80;99.90;;;;;;5032276;28;19910;-66
2023/10/06 08:22:26;;;;;;;;;;;11.80;99.90;;;;;;5033313;28;19916;-68
2023/10/06 08:24:53;;;;;;;;;;;11.90;99.90;;;;;;5033325;28;20302;-66
2023/10/06 08:27:21;;;;;;;;;;;12.00;99.90;;;;;;5033651;28;19909;-67
2023/10/06 08:29:47;;;;;;;;;;;12.00;99.90;;;;;;5033181;28;19924;-66
2023/10/06 08:32:12;;;;;;;;;;;12.10;99.90;;;;;;5033164;28;19936;-66
2023/10/06 08:34:39;;;;;;;;;;;12.20;99.90;;;;;;5032697;28;21341;-66
2023/10/06 08:37:10;;;;;;;;;;;12.40;99.90;;;;;;5033212;28;20000;-66
2023/10/06 08:39:39;;;;;;;;;;;12.50;99.90;;;;;;5033385;28;19909;-67
2023/10/06 08:42:09;;;;;;;;;;;12.70;99.90;;;;;;5033643;28;19936;-66
2023/10/06 08:44:36;;;;;;;;;;;12.70;99.90;;;;;;5033377;28;20378;-68
2023/10/06 08:47:02;;;;;;;;;;;12.90;99.90;;;;;;5033391;28;19910;-66
2023/10/06 08:49:29;;;;;;;;;;;13.10;99.90;;;;;;5033611;28;19913;-66
2023/10/06 08:51:56;;;;;;;;;;;13.30;99.90;;;;;;5032917;28;20058;-67
2023/10/06 08:54:22;;;;;;;;;;;13.50;99.90;;;;;;5033464;28;19917;-67
2023/10/06 08:56:48;;;;;;;;;;;13.80;99.90;;;;;;5033208;28;19913;-67
2023/10/06 08:59:16;;;;;;;;;;;14.00;99.90;;;;;;5033151;28;20394;-66
2023/10/06 09:01:43;;;;;;;;;;;14.40;99.90;;;;;;5033378;28;19910;-66
2023/10/06 09:04:09;;;;;;;;;;;14.80;99.90;;;;;;5033233;28;19916;-65
2023/10/06 09:06:37;;;;;;;;;;;15.60;99.90;;;;;;5031936;28;20394;-65
2023/10/06 09:09:03;;;;;;;;;;;16.00;99.90;;;;;;5033484;28;19919;-65
2023/10/06 09:11:38;;;;;;;;;;;16.00;99.90;;;;;;5033335;28;19913;-65
2023/10/06 09:14:13;;;;;;;;;;;16.20;99.90;;;;;;5033700;28;19968;-67
2023/10/06 09:16:48;;;;;;;;;;;16.20;99.90;;;;;;5032994;28;19916;-66
2023/10/06 09:19:14;;;;;;;;;;;16.40;99.90;;;;;;5033135;28;19916;-66
2023/10/06 09:21:59;;;;;;;;;;;16.40;99.90;;;;;;5033190;28;19909;-66
2023/10/06 09:24:25;;;;;;;;;;;16.50;99.90;;;;;;5033383;28;19952;-65
2023/10/06 09:26:51;;;;;;;;;;;16.70;99.90;;;;;;5033081;28;20359;-65
2023/10/06 09:29:28;;;;;;;;;;;16.80;99.90;;;;;;5033333;28;19960;-68
2023/10/06 09:31:57;;;;;;;;;;;16.90;99.90;;;;;;5033140;28;19917;-70
2023/10/06 09:34:26;;;;;;;;;;;16.90;99.90;;;;;;5034285;28;19916;-72
2023/10/06 09:36:51;;;;;;;;;;;17.10;99.90;;;;;;5036145;28;20272;-71
2023/10/06 09:39:28;;;;;;;;;;;16.70;99.90;;;;;;5037367;28;19943;-71
2023/10/06 09:42:00;;;;;;;;;;;17.00;99.90;;;;;;5035967;28;20138;-71
2023/10/06 09:44:26;;;;;;;;;;;17.30;99.90;;;;;;5036499;28;20367;-72
2023/10/06 09:46:52;;;;;;;;;;;17.50;99.90;;;;;;5035054;28;19909;-72
2023/10/06 09:49:18;;;;;;;;;;;17.90;99.90;;;;;;5036780;28;19917;-70
2023/10/06 09:51:45;;;;;;;;;;;18.30;99.90;;;;;;5036231;28;20351;-71
2023/10/06 09:54:11;;;;;;;;;;;18.40;99.90;;;;;;5036241;28;19968;-70
2023/10/06 09:56:36;;;;;;;;;;;18.50;99.90;;;;;;5034869;28;19913;-71
2023/10/06 09:59:02;;;;;;;;;;;19.00;99.90;;;;;;5036243;28;19909;-71
2023/10/06 10:01:31;;;;;;;;;;;20.80;99.90;;;;;;5037183;28;20000;-71
2023/10/06 10:03:57;;;;;;;;;;;23.00;97.60;;;;;;5037151;28;19917;-70
2023/10/06 10:06:23;;;;;;;;;;;24.90;94.50;;;;;;5036672;28;19920;-70
2023/10/06 10:08:51;;;;;;;;;;;26.10;92.00;;;;;;5034793;28;20339;-72
2023/10/06 10:11:24;;;;;;;;;;;26.90;90.90;;;;;;5034821;28;19913;-73
2023/10/06 10:14:02;;;;;;;;;;;27.90;87.90;;;;;;5036162;28;19908;-71
2023/10/06 10:16:37;;;;;;;;;;;28.80;86.00;;;;;;5015227;28;19926;-71
2023/10/06 10:19:13;;;;;;;;;;;29.40;83.80;;;;;;5016326;28;19909;-72
2023/10/06 10:21:39;;;;;;;;;;;30.00;81.60;;;;;;5016470;28;19909;-74
2023/10/06 10:24:07;;;;;;;;;;;30.60;79.50;;;;;;5015224;28;19917;-73
2023/10/06 10:26:37;;;;;;;;;;;31.10;78.00;;;;;;5014921;28;19936;-73
2023/10/06 10:29:15;;;;;;;;;;;31.70;76.10;;;;;;5016114;28;20325;-74
2023/10/06 10:31:51;;;;;;;;;;;30.60;76.00;;;;;;5016046;28;19984;-69
2023/10/06 10:34:23;;;;;;;;;;;31.50;74.10;;;;;;5015814;28;19909;-69
2023/10/06 10:37:08;;;;;;;;;;;31.80;75.70;;;;;;5016158;28;20386;-63
2023/10/06 10:39:43;;;;;;;;;;;32.80;72.40;;;;;;5015613;28;19913;-62
2023/10/06 10:42:09;;;;;;;;;;;32.90;71.50;;;;;;5015665;28;20337;-62
2023/10/06 10:44:35;;;;;;;;;;;32.80;70.80;;;;;;5020339;28;19963;-64
2023/10/06 10:47:02;;;;;;;;;;;32.80;70.30;;;;;;5033431;28;20324;-69
2023/10/06 10:49:32;;;;;;;;;;;33.20;69.60;;;;;;5035429;28;19909;-70
2023/10/06 10:52:08;;;;;;;;;;;32.70;68.90;;;;;;5035145;28;20023;-69
2023/10/06 10:54:35;;;;;;;;;;;32.00;70.00;;;;;;5035151;28;19915;-69
2023/10/06 10:57:09;;;;;;;;;;;30.00;71.30;;;;;;5035248;28;19909;-70
2023/10/06 10:59:53;;;;;;;;;;;28.20;73.80;;;;;;5035569;28;19910;-70
2023/10/06 11:02:19;;;;;;;;;;;26.10;77.90;;;;;;5034979;28;19915;-71
2023/10/06 11:04:45;;;;;;;;;;;24.50;80.70;;;;;;5034971;28;19988;-71
2023/10/06 11:07:12;;;;;;;;;;;23.20;83.70;;;;;;5035087;28;19940;-70
2023/10/06 11:09:41;;;;;;;;;;;22.10;86.40;;;;;;5035226;28;20390;-70
2023/10/06 11:12:15;;;;;;;;;;;21.30;89.40;;;;;;5033412;28;19971;-69
2023/10/06 11:14:41;;;;;;;;;;;20.40;90.90;;;;;;5033128;28;19924;-69
2023/10/06 11:17:07;;;;;;;;;;;19.70;92.50;;;;;;5033092;28;20020;-69
2023/10/06 11:19:33;;;;;;;;;;;19.50;93.00;;;;;;5035364;28;19910;-69
2023/10/06 11:22:08;;;;;;;;;;;19.50;92.80;;;;;;5034641;28;19955;-69
2023/10/06 11:24:34;;;;;;;;;;;19.50;93.70;;;;;;5034245;28;19916;-69
2023/10/06 11:27:09;;;;;;;;;;;19.40;94.10;;;;;;5034275;28;20282;-69
2023/10/06 11:29:35;;;;;;;;;;;19.30;94.90;;;;;;5034266;28;19920;-71
2023/10/06 11:32:01;;;;;;;;;;;19.20;95.00;;;;;;5033920;28;20287;-69
2023/10/06 11:34:27;;;;;;;;;;;19.20;95.10;;;;;;5034087;28;19916;-69
2023/10/06 11:36:54;;;;;;;;;;;19.10;95.40;;;;;;5033995;28;19963;-69
2023/10/06 11:39:23;;;;;;;;;;;19.00;95.30;;;;;;5034365;28;19913;-69
2023/10/06 11:41:50;;;;;;;;;;;18.90;96.10;;;;;;5034414;28;20255;-69
2023/10/06 11:44:15;;;;;;;;;;;18.80;95.60;;;;;;5032880;28;19913;-69
2023/10/06 11:46:56;;;;;;;;;;;18.80;95.50;;;;;;5032775;28;19909;-69
2023/10/06 11:49:23;;;;;;;;;;;18.80;95.30;;;;;;5034242;28;20359;-69
2023/10/06 11:51:49;;;;;;;;;;;18.70;94.70;;;;;;5032537;28;19920;-70
2023/10/06 11:54:14;;;;;;;;;;;18.50;96.10;;;;;;5034382;28;19924;-71
2023/10/06 11:56:49;;;;;;;;;;;18.30;96.90;;;;;;5033750;28;19909;-70
2023/10/06 11:59:19;;;;;;;;;;;18.20;98.00;;;;;;5030355;28;20398;-70
2023/10/06 12:01:45;;;;;;;;;;;18.30;98.10;;;;;;5024713;28;19913;-70
2023/10/06 12:04:29;;;;;;;;;;;18.50;98.20;;;;;;5024539;28;19914;-69
2023/10/06 12:06:55;;;;;;;;;;;18.70;97.50;;;;;;5026588;28;19959;-75
2023/10/06 12:09:25;;;;;;;;;;;18.80;95.60;;;;;;5026041;28;19909;-74
2023/10/06 12:11:50;;;;;;;;;;;18.90;94.70;;;;;;5021047;28;19920;-75
2023/10/06 12:14:16;;;;;;;;;;;18.90;95.60;;;;;;5014040;28;19913;-74
2023/10/06 12:16:44;;;;;;;;;;;18.90;95.60;;;;;;5013881;28;19980;-74
2023/10/06 12:19:11;;;;;;;;;;;18.80;95.40;;;;;;5016296;28;19974;-74
2023/10/06 12:21:36;;;;;;;;;;;19.00;95.20;;;;;;5039636;28;19920;-72
2023/10/06 12:24:02;;;;;;;;;;;19.20;95.00;;;;;;5034591;28;19909;-73
2023/10/06 12:26:28;;;;;;;;;;;19.30;94.50;;;;;;5033607;28;19919;-72
2023/10/06 12:28:54;;;;;;;;;;;19.50;93.90;;;;;;5032457;28;20364;-73
2023/10/06 12:31:19;;;;;;;;;;;19.40;93.60;;;;;;5033256;28;19919;-73
2023/10/06 12:33:45;;;;;;;;;;;19.30;93.60;;;;;;5032436;28;19952;-73
2023/10/06 12:36:12;;;;;;;;;;;19.30;93.60;;;;;;5033718;28;19909;-72
2023/10/06 12:38:39;;;;;;;;;;;19.20;94.10;;;;;;5034507;28;19920;-73
2023/10/06 12:41:06;;;;;;;;;;;19.30;94.20;;;;;;5032262;28;19909;-72
2023/10/06 12:43:35;;;;;;;;;;;19.30;93.70;;;;;;5034495;28;19947;-73
2023/10/06 12:46:03;;;;;;;;;;;19.30;93.40;;;;;;5034095;28;19932;-72
2023/10/06 12:48:30;;;;;;;;;;;19.30;93.70;;;;;;5033495;28;19910;-73
2023/10/06 12:50:56;;;;;;;;;;;19.40;93.50;;;;;;5033922;28;19909;-72
2023/10/06 12:53:21;;;;;;;;;;;19.60;92.50;;;;;;5034490;28;20283;-72
2023/10/06 12:55:56;;;;;;;;;;;19.60;92.50;;;;;;5032746;28;19921;-72
2023/10/06 12:58:22;;;;;;;;;;;19.60;93.60;;;;;;5033690;28;19913;-72
2023/10/06 13:00:47;;;;;;;;;;;19.60;92.90;;;;;;5031644;28;19935;-72
2023/10/06 13:03:16;;;;;;;;;;;19.70;92.70;;;;;;5033323;28;20372;-72
2023/10/06 13:05:45;;;;;;;;;;;19.60;92.50;;;;;;5033568;28;19916;-72
2023/10/06 13:08:16;;;;;;;;;;;19.70;92.50;;;;;;5034663;28;19916;-73
2023/10/06 13:10:42;;;;;;;;;;;19.60;92.80;;;;;;5038436;28;19909;-72
2023/10/06 13:13:08;;;;;;;;;;;19.50;92.60;;;;;;5040603;28;19917;-72
2023/10/06 13:15:33;;;;;;;;;;;19.40;93.40;;;;;;5037372;28;19917;-72
2023/10/06 13:18:00;;;;;;;;;;;19.40;93.30;;;;;;5037111;28;19920;-71
2023/10/06 13:20:25;;;;;;;;;;;19.30;93.50;;;;;;5037224;28;20352;-71
2023/10/06 13:22:51;;;;;;;;;;;19.30;93.60;;;;;;5037056;28;19916;-72
2023/10/06 13:25:17;;;;;;;;;;;19.30;93.70;;;;;;5035472;28;19917;-68
2023/10/06 13:27:49;;;;;;;;;;;19.30;94.00;;;;;;5035522;28;19909;-66
2023/10/06 13:30:17;;;;;;;;;;;19.40;94.70;;;;;;5037008;28;19910;-64
2023/10/06 13:32:44;;;;;;;;;;;19.50;94.00;;;;;;5036433;28;19936;-65
2023/10/06 13:35:16;;;;;;;;;;;19.50;93.90;;;;;;5036673;28;19916;-67
2023/10/06 13:37:44;;;;;;;;;;;19.50;93.70;;;;;;5036521;28;19943;-65
2023/10/06 13:40:10;;;;;;;;;;;19.60;94.00;;;;;;5037043;28;19909;-66
2023/10/06 13:42:41;;;;;;;;;;;19.50;93.70;;;;;;5036804;28;20303;-65
2023/10/06 13:45:15;;;;;;;;;;;19.50;94.10;;;;;;5036921;28;19936;-66
2023/10/06 13:47:47;;;;;;;;;;;19.80;93.60;;;;;;5035955;28;19916;-66
2023/10/06 13:50:13;;;;;;;;;;;19.90;93.20;;;;;;5036830;28;19909;-66
2023/10/06 13:52:43;;;;;;;;;;;19.90;92.60;;;;;;5037219;28;19913;-67
2023/10/06 13:55:10;;;;;;;;;;;20.00;92.70;;;;;;5036529;28;19913;-67
2023/10/06 13:57:36;;;;;;;;;;;20.00;92.80;;;;;;5036545;28;20314;-67
2023/10/06 14:00:05;;;;;;;;;;;20.00;92.60;;;;;;5036717;28;20295;-65
2023/10/06 14:02:30;;;;;;;;;;;20.10;92.40;;;;;;5036176;28;19941;-67
2023/10/06 14:04:57;;;;;;;;;;;20.20;92.40;;;;;;5036061;28;20079;-67
2023/10/06 14:07:22;;;;;;;;;;;20.20;92.20;;;;;;5036533;28;20271;-67
2023/10/06 14:09:48;;;;;;;;;;;20.20;92.30;;;;;;5036433;28;20000;-67
2023/10/06 14:12:14;;;;;;;;;;;20.20;92.20;;;;;;5036690;28;19913;-67
2023/10/06 14:17:16;;;;;;;;;;;20.10;92.00;;;;;;5036232;28;19909;-67
2023/10/06 14:19:44;;;;;;;;;;;20.00;91.90;;;;;;5037186;28;19909;-66
2023/10/06 14:22:10;;;;;;;;;;;19.90;92.30;;;;;;5037704;28;20368;-68
2023/10/06 14:24:39;;;;;;;;;;;20.00;91.70;;;;;;5037735;28;19909;-66
2023/10/06 14:27:05;;;;;;;;;;;19.80;92.20;;;;;;5037356;28;19916;-66
2023/10/06 14:29:31;;;;;;;;;;;19.70;92.10;;;;;;5036499;28;19948;-65
2023/10/06 14:32:11;;;;;;;;;;;19.70;92.10;;;;;;5037373;28;20312;-66
2023/10/06 14:34:56;;;;;;;;;;;19.50;92.30;;;;;;5037294;28;19936;-65
2023/10/06 14:37:42;;;;;;;;;;;19.40;92.20;;;;;;5034852;28;19909;-65
2023/10/06 14:48:27;;;;;;;;;;;19.40;92.20;;;;;;5035505;28;19955;-67
2023/10/06 14:51:01;;;;;;;;;;;19.40;92.40;;;;;;5035563;28;19909;-66
2023/10/06 14:53:28;;;;;;;;;;;19.40;92.20;;;;;;5035501;28;19920;-66
2023/10/06 14:55:54;;;;;;;;;;;19.40;92.20;;;;;;5035297;28;20421;-66
2023/10/06 14:58:20;;;;;;;;;;;19.40;92.20;;;;;;5035308;28;19916;-66
2023/10/06 15:00:46;;;;;;;;;;;19.60;92.10;;;;;;5035333;28;19909;-66
2023/10/06 15:03:16;;;;;;;;;;;19.60;91.70;;;;;;5034730;28;19913;-67
2023/10/06 15:05:41;;;;;;;;;;;19.80;91.60;;;;;;5034929;28;19913;-66
2023/10/06 15:08:12;;;;;;;;;;;19.90;91.40;;;;;;5034810;28;19909;-67
2023/10/06 15:10:39;;;;;;;;;;;19.90;91.80;;;;;;5034956;28;19909;-67
2023/10/06 15:13:04;;;;;;;;;;;19.80;91.60;;;;;;5034723;28;19913;-67
2023/10/06 15:15:30;;;;;;;;;;;19.60;92.50;;;;;;5034887;28;19917;-67
2023/10/06 15:17:57;;;;;;;;;;;19.40;92.60;;;;;;5035117;28;19987;-70
2023/10/06 15:20:26;;;;;;;;;;;19.40;92.80;;;;;;5033504;28;20028;-67
2023/10/06 15:22:54;;;;;;;;;;;19.30;92.70;;;;;;5034849;28;19916;-67
2023/10/06 15:25:20;;;;;;;;;;;19.30;92.70;;;;;;5034574;28;20337;-67
2023/10/06 15:27:48;;;;;;;;;;;19.40;92.80;;;;;;5034117;28;19995;-67
2023/10/06 15:30:17;;;;;;;;;;;19.50;92.80;;;;;;5031030;28;19917;-68
2023/10/06 15:32:43;;;;;;;;;;;19.50;92.60;;;;;;5027004;28;19996;-66
2023/10/06 15:35:09;;;;;;;;;;;19.50;92.80;;;;;;5031143;28;19908;-67
2023/10/06 15:37:35;;;;;;;;;;;19.30;93.00;;;;;;5031319;28;20356;-69
2023/10/06 15:40:01;;;;;;;;;;;19.30;93.10;;;;;;5022569;28;19914;-66
2023/10/06 15:42:35;;;;;;;;;;;19.30;93.30;;;;;;5023133;28;20271;-66
2023/10/06 15:45:03;;;;;;;;;;;19.20;93.60;;;;;;5028294;28;19913;-65
2023/10/06 15:47:28;;;;;;;;;;;19.20;93.50;;;;;;5024544;28;19991;-65
2023/10/06 15:49:55;;;;;;;;;;;19.20;93.40;;;;;;5024808;28;19941;-66
2023/10/06 15:52:22;;;;;;;;;;;19.00;93.80;;;;;;5029140;28;19924;-67
2023/10/06 15:54:47;;;;;;;;;;;18.90;94.20;;;;;;5024906;28;19913;-66
2023/10/06 15:57:13;;;;;;;;;;;19.00;94.10;;;;;;5028302;28;19959;-65
2023/10/06 15:59:39;;;;;;;;;;;18.90;94.20;;;;;;5029606;28;19909;-66
2023/10/06 16:02:06;;;;;;;;;;;18.90;94.40;;;;;;5027420;28;19921;-66
2023/10/06 16:04:34;;;;;;;;;;;18.80;94.50;;;;;;5023296;28;19948;-65
2023/10/06 16:07:03;;;;;;;;;;;18.80;94.70;;;;;;5023387;28;19956;-66
2023/10/06 16:09:28;;;;;;;;;;;18.60;94.90;;;;;;5023154;28;19913;-66
2023/10/06 16:11:54;;;;;;;;;;;18.70;95.00;;;;;;5022407;28;20419;-69
2023/10/06 16:14:19;;;;;;;;;;;18.50;95.10;;;;;;5017549;28;19918;-66
2023/10/06 16:16:46;;;;;;;;;;;18.40;95.30;;;;;;5037560;28;19913;-65
2023/10/06 16:19:13;;;;;;;;;;;18.20;95.50;;;;;;5038486;28;19956;-64
2023/10/06 16:21:41;;;;;;;;;;;18.10;95.70;;;;;;5036556;28;19920;-65
2023/10/06 16:24:08;;;;;;;;;;;18.00;95.80;;;;;;5035505;28;19913;-63
2023/10/06 16:26:33;;;;;;;;;;;17.90;96.30;;;;;;5032312;28;19909;-64
2023/10/06 16:28:59;;;;;;;;;;;17.90;96.30;;;;;;5033417;28;19921;-64
2023/10/06 16:31:24;;;;;;;;;;;17.90;96.40;;;;;;5033126;28;20024;-65
2023/10/06 16:33:51;;;;;;;;;;;17.80;96.60;;;;;;5033411;28;19909;-65
2023/10/06 16:36:16;;;;;;;;;;;17.70;96.70;;;;;;5033305;28;19909;-64
2023/10/06 16:38:41;;;;;;;;;;;17.60;96.90;;;;;;5033375;28;19916;-65
2023/10/06 16:41:07;;;;;;;;;;;17.50;97.10;;;;;;5033315;28;19913;-64
2023/10/06 16:43:32;;;;;;;;;;;17.50;97.30;;;;;;5032965;28;20051;-64
2023/10/06 16:46:00;;;;;;;;;;;17.30;97.30;;;;;;5033178;28;19921;-63
2023/10/06 16:48:26;;;;;;;;;;;17.40;97.40;;;;;;5033175;28;19963;-64
2023/10/06 16:50:53;;;;;;;;;;;17.40;97.30;;;;;;5033526;28;20338;-65
2023/10/06 16:53:19;;;;;;;;;;;17.30;97.20;;;;;;5032098;28;19943;-64
2023/10/06 16:55:44;;;;;;;;;;;17.20;97.20;;;;;;5033007;28;20356;-65
2023/10/06 16:58:10;;;;;;;;;;;17.20;97.40;;;;;;5033191;28;19949;-65
2023/10/06 17:00:37;;;;;;;;;;;17.00;97.30;;;;;;5033445;28;19916;-67
2023/10/06 17:03:03;;;;;;;;;;;17.00;97.60;;;;;;5033025;28;19909;-67
2023/10/06 17:05:28;;;;;;;;;;;17.00;97.70;;;;;;5033063;28;20259;-67
2023/10/06 17:07:54;;;;;;;;;;;16.90;97.70;;;;;;5034246;28;19909;-68
2023/10/06 17:10:22;;;;;;;;;;;16.80;97.90;;;;;;5029248;28;19914;-67
2023/10/06 17:12:48;;;;;;;;;;;16.80;97.90;;;;;;5033799;28;19917;-66
2023/10/06 17:15:14;;;;;;;;;;;16.70;98.10;;;;;;5047447;28;19924;-66
2023/10/06 17:17:44;;;;;;;;;;;16.60;98.20;;;;;;5032684;28;19909;-64
2023/10/06 17:20:17;;;;;;;;;;;16.50;98.60;;;;;;5046467;28;20329;-66
2023/10/06 17:22:45;;;;;;;;;;;16.50;98.60;;;;;;5052665;28;19916;-70
2023/10/06 17:25:19;;;;;;;;;;;16.40;98.80;;;;;;5052592;28;20007;-69
2023/10/06 17:27:46;;;;;;;;;;;16.40;99.00;;;;;;5013190;28;19941;-69
2023/10/06 17:30:12;;;;;;;;;;;16.30;99.30;;;;;;5019611;28;19932;-68
2023/10/06 17:32:37;;;;;;;;;;;16.40;99.40;;;;;;5023545;28;19913;-69
2023/10/06 17:35:03;;;;;;;;;;;16.40;99.40;;;;;;5031584;28;19909;-70
2023/10/06 17:37:29;;;;;;;;;;;16.40;99.40;;;;;;5021634;28;19910;-68
2023/10/06 17:39:55;;;;;;;;;;;16.30;99.60;;;;;;5012946;28;19917;-67
2023/10/06 17:42:21;;;;;;;;;;;16.30;99.90;;;;;;5013245;28;19916;-66
2023/10/06 17:44:47;;;;;;;;;;;16.20;99.90;;;;;;5025532;28;19946;-67
2023/10/06 17:47:13;;;;;;;;;;;16.10;99.90;;;;;;5052458;28;19909;-66
2023/10/06 17:49:38;;;;;;;;;;;16.10;99.90;;;;;;5036731;28;20346;-66
2023/10/06 17:52:05;;;;;;;;;;;16.10;99.90;;;;;;5033207;28;20469;-64
2023/10/06 17:54:30;;;;;;;;;;;16.10;99.90;;;;;;5032966;28;19915;-68
2023/10/06 17:56:58;;;;;;;;;;;16.10;99.90;;;;;;5054189;28;19997;-67
2023/10/06 17:59:24;;;;;;;;;;;16.10;99.90;;;;;;5056543;28;19909;-68
2023/10/06 18:01:49;;;;;;;;;;;16.00;99.90;;;;;;5056066;28;19916;-68
2023/10/06 18:04:14;;;;;;;;;;;15.90;99.90;;;;;;5055966;28;19908;-68
2023/10/06 18:06:40;;;;;;;;;;;15.90;99.90;;;;;;5056306;28;19916;-68
2023/10/06 18:09:07;;;;;;;;;;;16.00;99.90;;;;;;5056157;28;19995;-68
2023/10/06 18:11:33;;;;;;;;;;;15.80;99.90;;;;;;5056079;28;19920;-68
2023/10/06 18:13:58;;;;;;;;;;;15.80;99.90;;;;;;5036113;28;19920;-69
2023/10/06 18:16:25;;;;;;;;;;;15.70;99.90;;;;;;5036099;28;19913;-68
2023/10/06 18:18:50;;;;;;;;;;;15.60;99.90;;;;;;5035864;28;19916;-67
2023/10/06 18:21:17;;;;;;;;;;;15.60;99.90;;;;;;5036074;28;20307;-68
2023/10/06 18:23:43;;;;;;;;;;;15.50;99.90;;;;;;5035989;28;19909;-68
2023/10/06 18:26:09;;;;;;;;;;;15.50;99.90;;;;;;5035767;28;19991;-67
2023/10/06 18:28:35;;;;;;;;;;;15.50;99.90;;;;;;5035830;28;19952;-66
2023/10/06 18:31:01;;;;;;;;;;;15.40;99.90;;;;;;5035695;28;19915;-67